Time;durP1;ratioP1;P1;durP2;ratioP2;P2;SDS_P1;SDS_P2;PMS_P1;PMS_P2;Temp;Humidity;BMP_temperature;BMP_pressure;BME280_temperature;BME280_humidity;BME280_pressure;Samples;Min_cycle;Max_cycle;Signal;HPM_P1;HPM_P2
2022/03/02 00:00:36;;;;;;;76.25;37.97;;;;;;;-4.88;100.00;100133.78;2082169;28;20199;-74
2022/03/02 00:01:38;;;;;;;69.57;37.35;;;;;;;-4.90;100.00;100130.56;2090980;28;20217;-73
2022/03/02 00:02:41;;;;;;;78.53;38.00;;;;;;;-4.93;100.00;100130.09;2083036;28;20199;-73
2022/03/02 00:03:44;;;;;;;65.72;35.85;;;;;;;-4.94;100.00;100128.47;2083115;28;20188;-73
2022/03/02 00:04:46;;;;;;;66.75;37.05;;;;;;;-4.96;100.00;100125.22;2082925;28;20673;-73
2022/03/02 00:05:48;;;;;;;75.38;38.08;;;;;;;-4.97;100.00;100126.19;2083317;28;20749;-73
2022/03/02 00:06:49;;;;;;;76.50;37.70;;;;;;;-4.99;100.00;100126.38;2074558;28;20302;-73
2022/03/02 00:07:53;;;;;;;78.55;39.75;;;;;;;-5.01;100.00;100125.72;2083087;28;20184;-74
2022/03/02 00:08:55;;;;;;;66.40;37.63;;;;;;;-5.05;100.00;100121.03;2082782;28;20226;-74
2022/03/02 00:09:57;;;;;;;81.47;40.13;;;;;;;-5.07;100.00;100118.59;2083112;28;20697;-74
2022/03/02 00:10:59;;;;;;;73.90;39.00;;;;;;;-5.08;100.00;100118.78;2083581;28;20199;-74
2022/03/02 00:12:02;;;;;;;78.32;40.05;;;;;;;-5.10;100.00;100112.94;2082982;28;20192;-74
2022/03/02 00:13:04;;;;;;;69.93;38.75;;;;;;;-5.12;100.00;100106.09;2083105;28;20198;-74
2022/03/02 00:14:06;;;;;;;75.80;38.80;;;;;;;-5.12;100.00;100124.31;2091189;28;20583;-74
2022/03/02 00:15:08;;;;;;;75.18;40.25;;;;;;;-5.12;100.00;100110.50;2082878;28;20211;-74
2022/03/02 00:16:11;;;;;;;92.57;44.00;;;;;;;-5.10;100.00;100111.13;2075288;28;20201;-74
2022/03/02 00:17:13;;;;;;;93.85;45.47;;;;;;;-5.10;100.00;100108.53;2083103;28;20580;-74
2022/03/02 00:18:16;;;;;;;93.93;45.53;;;;;;;-5.05;100.00;100110.63;2083510;28;20225;-74
2022/03/02 00:19:18;;;;;;;88.28;45.90;;;;;;;-5.04;100.00;100113.03;2083543;28;20208;-74
2022/03/02 00:20:20;;;;;;;87.30;44.85;;;;;;;-5.01;100.00;100111.91;2082914;28;20579;-74
2022/03/02 00:21:22;;;;;;;87.20;45.40;;;;;;;-5.00;100.00;100118.75;2083077;28;20607;-74
2022/03/02 00:22:24;;;;;;;92.60;45.10;;;;;;;-4.96;100.00;100114.81;2083664;28;20196;-74
2022/03/02 00:23:25;;;;;;;83.88;43.53;;;;;;;-4.97;100.00;100106.19;2083561;28;20599;-74
2022/03/02 00:24:28;;;;;;;95.47;45.47;;;;;;;-5.00;100.00;100114.34;2082743;28;20215;-74
2022/03/02 00:25:30;;;;;;;98.85;46.30;;;;;;;-4.98;100.00;100109.78;2082928;28;20650;-74
2022/03/02 00:26:33;;;;;;;103.70;43.63;;;;;;;-5.01;100.00;100109.31;2083114;28;20666;-74
2022/03/02 00:27:36;;;;;;;82.85;43.28;;;;;;;-5.01;100.00;100104.13;2074830;28;20200;-74
2022/03/02 00:28:40;;;;;;;82.05;43.00;;;;;;;-5.07;100.00;100104.78;2075128;28;20235;-74
2022/03/02 00:29:42;;;;;;;90.25;43.78;;;;;;;-5.08;100.00;100111.78;2074902;28;20200;-74
2022/03/02 00:30:44;;;;;;;88.07;42.92;;;;;;;-5.12;100.00;100102.69;2082852;28;20278;-74
2022/03/02 00:31:46;;;;;;;97.00;45.15;;;;;;;-5.16;100.00;100107.41;2082767;28;20682;-74
2022/03/02 00:32:49;;;;;;;80.57;42.78;;;;;;;-5.19;100.00;100105.16;2075014;28;20211;-74
2022/03/02 00:33:50;;;;;;;99.55;45.45;;;;;;;-5.20;100.00;100108.75;2082799;28;20301;-74
2022/03/02 00:34:54;;;;;;;97.25;47.08;;;;;;;-5.23;100.00;100109.06;2082689;28;20645;-74
2022/03/02 00:35:57;;;;;;;101.63;47.55;;;;;;;-5.27;100.00;100096.56;2082141;28;20242;-74
2022/03/02 00:36:59;;;;;;;111.18;49.22;;;;;;;-5.28;100.00;100107.97;2083637;28;20689;-74
2022/03/02 00:38:02;;;;;;;93.63;47.03;;;;;;;-5.30;100.00;100102.94;2082606;28;20200;-74
2022/03/02 00:39:04;;;;;;;95.07;45.85;;;;;;;-5.30;100.00;100100.31;2082860;28;20192;-74
2022/03/02 00:40:07;;;;;;;102.00;46.00;;;;;;;-5.35;100.00;100094.81;2082538;28;20205;-74
2022/03/02 00:41:09;;;;;;;96.30;45.58;;;;;;;-5.34;100.00;100099.03;2082841;28;20578;-74
2022/03/02 00:42:12;;;;;;;95.60;46.42;;;;;;;-5.34;100.00;100099.03;2082895;28;20246;-74
2022/03/02 00:43:16;;;;;;;101.38;48.40;;;;;;;-5.36;100.00;100102.78;2083003;28;20191;-74
2022/03/02 00:44:17;;;;;;;94.97;45.88;;;;;;;-5.37;100.00;100106.34;2083428;28;20187;-74
2022/03/02 00:45:19;;;;;;;93.30;43.80;;;;;;;-5.41;100.00;100098.88;2083010;28;20273;-74
2022/03/02 00:46:26;;;;;;;95.32;45.20;;;;;;;-5.37;100.00;100103.75;2083090;28;20191;-74
2022/03/02 00:47:28;;;;;;;86.75;42.92;;;;;;;-5.36;100.00;100102.78;2083000;28;20560;-74
2022/03/02 00:48:32;;;;;;;99.97;46.72;;;;;;;-5.37;100.00;100099.38;2082707;28;20610;-74
2022/03/02 00:49:35;;;;;;;99.40;45.30;;;;;;;-5.35;100.00;100099.19;2082690;28;20665;-74
2022/03/02 00:50:37;;;;;;;99.50;47.58;;;;;;;-5.35;100.00;100094.00;2074716;28;20223;-74
2022/03/02 00:51:39;;;;;;;96.18;46.75;;;;;;;-5.35;100.00;100100.00;2082310;28;20223;-74
2022/03/02 00:52:43;;;;;;;105.88;49.63;;;;;;;-5.34;100.00;100095.63;2083209;28;20192;-74
2022/03/02 00:53:45;;;;;;;111.75;49.90;;;;;;;-5.35;100.00;100092.19;2082831;28;20741;-74
2022/03/02 00:54:47;;;;;;;100.72;48.65;;;;;;;-5.34;100.00;100098.22;2082603;28;20226;-74
2022/03/02 00:55:48;;;;;;;87.43;46.03;;;;;;;-5.36;100.00;100092.38;2083178;28;20662;-74
2022/03/02 00:56:51;;;;;;;106.20;49.08;;;;;;;-5.34;100.00;100088.63;2083227;28;20548;-74
2022/03/02 00:57:52;;;;;;;106.57;50.97;;;;;;;-5.32;100.00;100093.66;2082503;28;20191;-74
2022/03/02 00:58:56;;;;;;;113.43;51.55;;;;;;;-5.36;100.00;100090.59;2074672;28;20315;-74
2022/03/02 00:59:57;;;;;;;121.32;52.63;;;;;;;-5.39;100.00;100088.28;2082581;28;20608;-74
2022/03/02 01:01:00;;;;;;;113.43;53.47;;;;;;;-5.41;100.00;100088.47;2082496;28;20200;-74
2022/03/02 01:02:03;;;;;;;123.32;53.20;;;;;;;-5.44;100.00;100093.19;2082535;28;20241;-74
2022/03/02 01:03:05;;;;;;;122.35;56.42;;;;;;;-5.46;100.00;100088.19;2082862;28;20207;-74
2022/03/02 01:04:08;;;;;;;119.65;55.22;;;;;;;-5.47;100.00;100080.56;2082609;28;20195;-74
2022/03/02 01:05:10;;;;;;;117.50;55.58;;;;;;;-5.51;100.00;100085.25;2090892;28;20203;-74
2022/03/02 01:06:13;;;;;;;134.05;56.38;;;;;;;-5.52;100.00;100078.44;2082781;28;20225;-74
2022/03/02 01:07:15;;;;;;;124.65;55.65;;;;;;;-5.55;100.00;100083.97;2083168;28;20199;-74
2022/03/02 01:08:17;;;;;;;124.90;58.75;;;;;;;-5.57;100.00;100077.31;2082388;28;20196;-74
2022/03/02 01:09:20;;;;;;;135.30;60.13;;;;;;;-5.59;100.00;100071.47;2082446;28;20227;-74
2022/03/02 01:10:22;;;;;;;134.73;58.20;;;;;;;-5.61;100.00;100068.22;2083128;28;20207;-74
2022/03/02 01:11:25;;;;;;;143.93;61.00;;;;;;;-5.63;100.00;100078.00;2082475;28;20246;-74
2022/03/02 01:12:26;;;;;;;148.52;61.65;;;;;;;-5.64;100.00;100071.16;2081993;28;20195;-74
2022/03/02 01:13:29;;;;;;;128.90;58.75;;;;;;;-5.68;100.00;100073.28;2082078;28;20206;-74
2022/03/02 01:14:33;;;;;;;138.82;58.17;;;;;;;-5.66;100.00;100070.50;2082471;28;20335;-74
2022/03/02 01:15:36;;;;;;;131.48;60.97;;;;;;;-5.66;100.00;100071.31;2082374;28;20203;-74
2022/03/02 01:16:37;;;;;;;140.60;61.22;;;;;;;-5.66;100.00;100075.69;2074458;28;20200;-74
2022/03/02 01:17:40;;;;;;;149.07;62.85;;;;;;;-5.68;100.00;100063.69;2082750;28;20192;-74
2022/03/02 01:18:43;;;;;;;148.65;62.90;;;;;;;-5.69;100.00;100063.84;2082472;28;20639;-74
2022/03/02 01:19:46;;;;;;;146.63;63.05;;;;;;;-5.72;100.00;100072.00;2082581;28;20544;-74
2022/03/02 01:20:48;;;;;;;151.13;66.18;;;;;;;-5.75;100.00;100062.72;2082324;28;20234;-74
2022/03/02 01:21:51;;;;;;;157.02;63.83;;;;;;;-5.74;100.00;100066.94;2081897;28;20318;-74
2022/03/02 01:22:52;;;;;;;153.18;65.80;;;;;;;-5.76;100.00;100065.50;2082994;28;20598;-74
2022/03/02 01:23:56;;;;;;;142.88;63.95;;;;;;;-5.75;100.00;100072.31;2083008;28;20214;-74
2022/03/02 01:24:57;;;;;;;149.60;67.47;;;;;;;-5.77;100.00;100069.88;2082707;28;20238;-74
2022/03/02 01:26:00;;;;;;;155.85;66.72;;;;;;;-5.78;100.00;100068.25;2074197;28;20252;-74
2022/03/02 01:27:02;;;;;;;154.30;66.45;;;;;;;-5.77;100.00;100069.88;2082450;28;20313;-74
2022/03/02 01:28:04;;;;;;;154.88;65.82;;;;;;;-5.77;100.00;100064.69;2082258;28;20250;-74
2022/03/02 01:29:06;;;;;;;150.55;67.13;;;;;;;-5.76;100.00;100065.50;2082361;28;20760;-74
2022/03/02 01:30:11;;;;;;;149.82;64.97;;;;;;;-5.74;100.00;100063.53;2083084;28;20188;-74
2022/03/02 01:31:12;;;;;;;154.35;67.47;;;;;;;-5.77;100.00;100059.47;2083130;28;20188;-74
2022/03/02 01:32:14;;;;;;;164.02;67.93;;;;;;;-5.78;100.00;100063.06;2083050;28;20187;-74
2022/03/02 01:33:15;;;;;;;148.85;65.57;;;;;;;-5.79;100.00;100063.22;2082249;28;20223;-74
2022/03/02 01:34:18;;;;;;;152.07;65.68;;;;;;;-5.79;100.00;100061.44;2082332;28;20199;-74
2022/03/02 01:35:20;;;;;;;161.13;67.55;;;;;;;-5.79;100.00;100058.84;2082325;28;20333;-74
2022/03/02 01:36:23;;;;;;;152.80;65.57;;;;;;;-5.80;100.00;100061.63;2081970;28;20219;-74
2022/03/02 01:37:25;;;;;;;155.98;64.90;;;;;;;-5.81;100.00;100057.41;2082493;28;20227;-74
2022/03/02 01:38:29;;;;;;;142.60;63.45;;;;;;;-5.81;100.00;100063.41;2082646;28;20195;-74
2022/03/02 01:39:30;;;;;;;159.82;64.78;;;;;;;-5.84;100.00;100053.31;2074460;28;20235;-74
2022/03/02 01:40:33;;;;;;;157.98;66.53;;;;;;;-5.82;100.00;100054.00;2074353;28;20694;-75
2022/03/02 01:41:34;;;;;;;153.60;67.20;;;;;;;-5.83;100.00;100056.72;2082473;28;20637;-75
2022/03/02 01:42:37;;;;;;;157.82;67.63;;;;;;;-5.81;100.00;100054.81;2082964;28;20203;-75
2022/03/02 01:43:38;;;;;;;164.00;68.57;;;;;;;-5.81;100.00;100049.59;2082918;28;20187;-74
2022/03/02 01:44:41;;;;;;;161.02;67.85;;;;;;;-5.81;100.00;100053.00;2083037;28;20275;-74
2022/03/02 01:45:44;;;;;;;155.52;68.70;;;;;;;-5.80;100.00;100053.81;2082297;28;20203;-74
2022/03/02 01:46:47;;;;;;;158.50;66.85;;;;;;;-5.81;100.00;100055.59;2074251;28;20192;-74
2022/03/02 01:47:48;;;;;;;153.13;67.97;;;;;;;-5.80;100.00;100054.63;2082639;28;20696;-75
2022/03/02 01:48:51;;;;;;;156.95;66.20;;;;;;;-5.81;100.00;100045.22;2082739;28;20264;-75
2022/03/02 01:49:52;;;;;;;160.65;67.80;;;;;;;-5.81;100.00;100040.00;2082861;28;20617;-75
2022/03/02 01:50:54;;;;;;;160.35;65.70;;;;;;;-5.82;100.00;100037.56;2089769;28;20236;-75
2022/03/02 01:51:56;;;;;;;149.75;64.60;;;;;;;-5.80;100.00;100043.41;2082029;28;20225;-75
2022/03/02 01:52:59;;;;;;;151.15;64.32;;;;;;;-5.81;100.00;100040.00;2082342;28;20188;-75
2022/03/02 01:54:01;;;;;;;161.82;68.38;;;;;;;-5.83;100.00;100039.34;2082482;28;20674;-75
2022/03/02 01:55:04;;;;;;;155.52;66.78;;;;;;;-5.82;100.00;100048.78;2074282;28;20229;-75
2022/03/02 01:56:06;;;;;;;151.85;64.38;;;;;;;-5.82;100.00;100045.34;2082107;28;20681;-75
2022/03/02 01:57:08;;;;;;;147.63;67.80;;;;;;;-5.83;100.00;100049.75;2082744;28;20192;-75
2022/03/02 01:58:10;;;;;;;155.48;66.50;;;;;;;-5.84;100.00;100045.53;2082797;28;20203;-75
2022/03/02 01:59:12;;;;;;;151.85;66.38;;;;;;;-5.83;100.00;100047.16;2082702;28;20187;-75
2022/03/02 02:00:18;;;;;;;150.98;64.30;;;;;;;-5.84;100.00;100042.13;2082741;28;20202;-75
2022/03/02 02:01:22;;;;;;;155.57;67.32;;;;;;;-5.86;100.00;100039.69;2082468;28;20214;-75
2022/03/02 02:02:24;;;;;;;156.32;65.50;;;;;;;-5.84;100.00;100052.50;2082427;28;20188;-75
2022/03/02 02:03:27;;;;;;;157.38;66.20;;;;;;;-5.85;100.00;100040.50;2082675;28;20261;-75
2022/03/02 02:04:28;;;;;;;148.82;62.75;;;;;;;-5.86;100.00;100044.06;2082353;28;20261;-75
2022/03/02 02:05:31;;;;;;;141.65;64.30;;;;;;;-5.85;100.00;100043.91;2082234;28;20191;-75
2022/03/02 02:06:33;;;;;;;149.98;63.60;;;;;;;-5.84;100.00;100052.50;2082534;28;20212;-75
2022/03/02 02:07:35;;;;;;;152.48;65.85;;;;;;;-5.85;100.00;100054.31;2081999;28;20191;-75
2022/03/02 02:08:37;;;;;;;143.90;63.50;;;;;;;-5.85;100.00;100045.69;2082057;28;20357;-75
2022/03/02 02:09:39;;;;;;;154.45;65.20;;;;;;;-5.85;100.00;100049.09;2090333;28;20560;-75
2022/03/02 02:10:41;;;;;;;158.65;65.50;;;;;;;-5.84;100.00;100036.91;2090224;28;20201;-75
2022/03/02 02:11:43;;;;;;;144.55;64.90;;;;;;;-5.86;100.00;100044.06;2090244;28;20588;-75
2022/03/02 02:12:45;;;;;;;148.05;64.88;;;;;;;-5.84;100.00;100032.53;2090191;28;20258;-75
2022/03/02 02:13:47;;;;;;;145.27;63.83;;;;;;;-5.81;100.00;100032.22;2082811;28;20198;-75
2022/03/02 02:14:49;;;;;;;150.35;64.20;;;;;;;-5.76;100.00;100040.31;2081998;28;20246;-75
2022/03/02 02:15:52;;;;;;;158.68;68.30;;;;;;;-5.77;100.00;100038.69;2082046;28;20187;-75
2022/03/02 02:16:56;;;;;;;155.90;64.57;;;;;;;-5.73;100.00;100040.00;2082594;28;20191;-75
2022/03/02 02:17:58;;;;;;;160.65;65.65;;;;;;;-5.73;100.00;100042.59;2082645;28;20572;-75
2022/03/02 02:19:01;;;;;;;157.32;66.80;;;;;;;-5.70;100.00;100042.25;2082615;28;20617;-75
2022/03/02 02:20:04;;;;;;;158.18;65.03;;;;;;;-5.69;100.00;100038.69;2082652;28;20564;-75
2022/03/02 02:21:09;;;;;;;160.93;66.13;;;;;;;-5.67;100.00;100043.69;2082343;28;20191;-75
2022/03/02 02:22:11;;;;;;;156.20;66.30;;;;;;;-5.67;100.00;100035.91;2083038;28;20176;-75
2022/03/02 02:23:13;;;;;;;163.23;67.47;;;;;;;-5.65;100.00;100043.53;2082616;28;20194;-75
2022/03/02 02:24:16;;;;;;;141.68;63.25;;;;;;;-5.65;100.00;100038.34;2082458;28;20278;-75
2022/03/02 02:25:19;;;;;;;144.68;64.75;;;;;;;-5.68;100.00;100032.50;2081871;28;20198;-75
2022/03/02 02:26:21;;;;;;;144.70;63.47;;;;;;;-5.64;100.00;100039.97;2081871;28;20203;-75
2022/03/02 02:27:26;;;;;;;145.43;63.97;;;;;;;-5.66;100.00;100028.91;2082543;28;20188;-75
2022/03/02 02:28:30;;;;;;;148.10;65.57;;;;;;;-5.65;100.00;100033.13;2082765;28;20545;-75
2022/03/02 02:29:32;;;;;;;145.30;64.07;;;;;;;-5.66;100.00;100031.50;2082498;28;20673;-75
2022/03/02 02:30:34;;;;;;;148.38;66.57;;;;;;;-5.63;100.00;100028.59;2082824;28;20725;-75
2022/03/02 02:31:37;;;;;;;158.27;66.18;;;;;;;-5.64;100.00;100032.19;2082503;28;20196;-75
2022/03/02 02:32:40;;;;;;;161.10;68.25;;;;;;;-5.64;100.00;100029.59;2082413;28;20191;-76
2022/03/02 02:33:43;;;;;;;159.07;65.93;;;;;;;-5.65;100.00;100020.94;2082409;28;20238;-76
2022/03/02 02:34:45;;;;;;;143.93;64.22;;;;;;;-5.64;100.00;100022.59;2082693;28;20199;-76
2022/03/02 02:35:46;;;;;;;147.48;67.13;;;;;;;-5.63;100.00;100018.22;2082374;28;20594;-75
2022/03/02 02:36:51;;;;;;;152.43;64.97;;;;;;;-5.62;100.00;100025.03;2082115;28;20227;-75
2022/03/02 02:37:53;;;;;;;143.45;66.72;;;;;;;-5.62;100.00;100025.03;2082355;28;20321;-76
2022/03/02 02:38:56;;;;;;;153.95;65.70;;;;;;;-5.60;100.00;100023.06;2081661;28;20206;-75
2022/03/02 02:39:58;;;;;;;139.68;63.53;;;;;;;-5.62;100.00;100022.41;2081690;28;20202;-76
2022/03/02 02:41:02;;;;;;;150.43;64.15;;;;;;;-5.61;100.00;100029.25;2081677;28;20295;-76
2022/03/02 02:42:07;;;;;;;149.02;64.57;;;;;;;-5.59;100.00;100032.47;2081630;28;20195;-76
2022/03/02 02:43:11;;;;;;;156.43;65.25;;;;;;;-5.59;100.00;100025.47;2081765;28;20222;-76
2022/03/02 02:44:12;;;;;;;144.73;65.25;;;;;;;-5.57;100.00;100023.53;2081737;28;20673;-76
2022/03/02 02:45:17;;;;;;;151.30;65.95;;;;;;;-5.51;100.00;100022.84;2089932;28;20249;-76
2022/03/02 02:46:19;;;;;;;153.48;67.28;;;;;;;-5.49;100.00;100022.69;2081619;28;20226;-76
2022/03/02 02:47:20;;;;;;;157.50;66.25;;;;;;;-5.48;100.00;100024.31;2073911;28;20212;-75
2022/03/02 02:48:24;;;;;;;158.43;66.97;;;;;;;-5.49;100.00;100025.28;2082044;28;20723;-76
2022/03/02 02:49:25;;;;;;;157.98;66.97;;;;;;;-5.49;100.00;100020.09;2081943;28;20561;-75
2022/03/02 02:50:29;;;;;;;153.63;67.75;;;;;;;-5.50;100.00;100018.47;2074110;28;20287;-75
2022/03/02 02:51:31;;;;;;;161.20;67.45;;;;;;;-5.47;100.00;100028.56;2081477;28;20231;-76
2022/03/02 02:52:39;;;;;;;164.65;69.72;;;;;;;-5.48;100.00;100024.31;2082395;28;20187;-76
2022/03/02 02:53:42;;;;;;;170.80;69.57;;;;;;;-5.45;100.00;100022.19;2082354;28;20682;-75
2022/03/02 02:54:44;;;;;;;163.73;68.93;;;;;;;-5.41;100.00;100020.88;2081671;28;20233;-75
2022/03/02 02:55:50;;;;;;;153.13;67.70;;;;;;;-5.39;100.00;100023.28;2082044;28;20255;-76
2022/03/02 02:56:51;;;;;;;156.35;66.93;;;;;;;-5.37;100.00;100017.94;2081902;28;20196;-76
2022/03/02 02:57:54;;;;;;;147.30;66.07;;;;;;;-5.39;100.00;100020.69;2081856;28;20223;-76
2022/03/02 02:58:57;;;;;;;151.95;66.45;;;;;;;-5.38;100.00;100022.34;2081610;28;20265;-75
2022/03/02 02:59:58;;;;;;;172.05;68.50;;;;;;;-5.35;100.00;100015.97;2081735;28;20662;-75
2022/03/02 03:01:01;;;;;;;157.98;66.32;;;;;;;-5.35;100.00;100015.97;2089802;28;20219;-75
2022/03/02 03:02:03;;;;;;;154.45;64.75;;;;;;;-5.33;100.00;100017.44;2081601;28;20257;-76
2022/03/02 03:03:06;;;;;;;146.93;66.00;;;;;;;-5.31;100.00;100025.06;2081969;28;20191;-76
2022/03/02 03:04:10;;;;;;;160.98;69.38;;;;;;;-5.31;100.00;100017.25;2081757;28;20207;-76
2022/03/02 03:05:14;;;;;;;155.25;67.50;;;;;;;-5.32;100.00;100021.63;2081953;28;20618;-76
2022/03/02 03:06:16;;;;;;;152.57;66.93;;;;;;;-5.31;100.00;100012.84;2081954;28;20310;-76
2022/03/02 03:07:18;;;;;;;153.05;68.28;;;;;;;-5.30;100.00;100019.72;2082455;28;20176;-75
2022/03/02 03:08:21;;;;;;;159.80;68.88;;;;;;;-5.32;100.00;100016.44;2081909;28;20226;-76
2022/03/02 03:09:22;;;;;;;155.20;69.00;;;;;;;-5.30;100.00;100017.09;2081733;28;20278;-76
2022/03/02 03:10:25;;;;;;;156.90;68.23;;;;;;;-5.31;100.00;100022.44;2089839;28;20202;-76
2022/03/02 03:11:29;;;;;;;172.32;68.97;;;;;;;-5.30;100.00;100024.91;2081539;28;20238;-76
2022/03/02 03:12:31;;;;;;;162.20;69.30;;;;;;;-5.30;100.00;100022.31;2081715;28;20736;-76
2022/03/02 03:13:34;;;;;;;159.60;69.30;;;;;;;-5.24;100.00;100026.00;2089761;28;20199;-76
2022/03/02 03:14:35;;;;;;;152.52;67.63;;;;;;;-5.21;100.00;100021.28;2081674;28;20215;-76
2022/03/02 03:15:39;;;;;;;156.07;66.13;;;;;;;-5.24;100.00;100029.41;2081548;28;20219;-76
2022/03/02 03:16:41;;;;;;;167.15;69.30;;;;;;;-5.26;100.00;100020.97;2081541;28;20203;-76
2022/03/02 03:17:44;;;;;;;152.13;67.32;;;;;;;-5.27;100.00;100021.97;2081661;28;20673;-76
2022/03/02 03:18:46;;;;;;;156.98;68.32;;;;;;;-5.30;100.00;100019.72;2082211;28;20274;-76
2022/03/02 03:19:48;;;;;;;149.93;65.80;;;;;;;-5.34;100.00;100018.41;2081600;28;20192;-76
2022/03/02 03:20:49;;;;;;;150.15;68.82;;;;;;;-5.37;100.00;100018.75;2081622;28;20897;-76
2022/03/02 03:21:51;;;;;;;160.00;69.30;;;;;;;-5.38;100.00;100019.75;2081197;28;20223;-76
2022/03/02 03:22:53;;;;;;;168.00;68.80;;;;;;;-5.44;100.00;100015.19;2073702;28;20291;-76
2022/03/02 03:23:58;;;;;;;162.00;69.43;;;;;;;-5.47;100.00;100013.75;2081753;28;20219;-76
2022/03/02 03:24:58;;;;;;;159.05;68.00;;;;;;;-5.50;100.00;100015.88;2081551;28;20207;-76
2022/03/02 03:26:01;;;;;;;163.23;69.97;;;;;;;-5.54;100.00;100006.81;2073711;28;20679;-76
2022/03/02 03:27:02;;;;;;;158.68;66.97;;;;;;;-5.59;100.00;100007.28;2081794;28;20686;-76
2022/03/02 03:28:05;;;;;;;157.48;70.35;;;;;;;-5.60;100.00;100017.84;2081519;28;20701;-76
2022/03/02 03:29:07;;;;;;;160.88;68.57;;;;;;;-5.62;100.00;100017.22;2081370;28;20337;-75
2022/03/02 03:30:11;;;;;;;154.15;66.47;;;;;;;-5.66;100.00;100016.72;2073736;28;20228;-76
2022/03/02 03:31:13;;;;;;;161.05;68.38;;;;;;;-5.66;100.00;100018.53;2081678;28;20629;-76
2022/03/02 03:32:15;;;;;;;185.82;71.10;;;;;;;-5.68;100.00;100019.50;2081471;28;20203;-76
2022/03/02 03:33:17;;;;;;;157.77;68.25;;;;;;;-5.73;100.00;100019.22;2081497;28;20756;-76
2022/03/02 03:34:19;;;;;;;165.23;71.00;;;;;;;-5.72;100.00;100023.44;2081495;28;20203;-76
2022/03/02 03:35:23;;;;;;;164.07;71.07;;;;;;;-5.73;100.00;100016.59;2081257;28;20301;-76
2022/03/02 03:36:26;;;;;;;162.32;69.88;;;;;;;-5.75;100.00;100022.94;2080675;28;20684;-76
2022/03/02 03:37:27;;;;;;;150.93;66.25;;;;;;;-5.75;100.00;100017.72;2082222;28;20291;-76
2022/03/02 03:38:29;;;;;;;149.95;67.68;;;;;;;-5.80;100.00;100018.25;2082333;28;20594;-76
2022/03/02 03:39:33;;;;;;;153.57;69.05;;;;;;;-5.82;100.00;100017.63;2081471;28;20694;-76
2022/03/02 03:40:35;;;;;;;151.13;68.75;;;;;;;-5.85;100.00;100014.50;2073660;28;20658;-76
2022/03/02 03:41:37;;;;;;;152.38;66.45;;;;;;;-5.84;100.00;100014.34;2081470;28;20195;-76
2022/03/02 03:42:39;;;;;;;164.60;69.55;;;;;;;-5.87;100.00;100012.09;2081679;28;20291;-76
2022/03/02 03:43:41;;;;;;;162.73;67.95;;;;;;;-5.88;100.00;100018.25;2081464;28;20665;-76
2022/03/02 03:44:42;;;;;;;149.25;66.63;;;;;;;-5.88;100.00;100015.66;2082263;28;20192;-76
2022/03/02 03:45:46;;;;;;;150.67;66.53;;;;;;;-5.90;100.00;100017.63;2082195;28;20222;-76
2022/03/02 03:46:48;;;;;;;159.93;69.38;;;;;;;-5.94;100.00;100011.16;2082172;28;20219;-76
2022/03/02 03:47:51;;;;;;;162.90;71.25;;;;;;;-5.96;100.00;100007.91;2082108;28;20192;-76
2022/03/02 03:48:53;;;;;;;167.77;70.95;;;;;;;-5.96;100.00;100007.09;2081429;28;20200;-76
2022/03/02 03:49:56;;;;;;;165.32;72.45;;;;;;;-5.97;100.00;100008.09;2081591;28;20736;-76
2022/03/02 03:50:57;;;;;;;177.57;76.50;;;;;;;-5.99;100.00;100005.66;2080950;28;20227;-75
2022/03/02 03:52:03;;;;;;;173.52;73.35;;;;;;;-5.97;100.00;100008.09;2081567;28;20186;-76
2022/03/02 03:53:05;;;;;;;169.73;74.03;;;;;;;-5.99;100.00;100013.47;2082147;28;20662;-76
2022/03/02 03:54:08;;;;;;;170.88;75.55;;;;;;;-5.97;100.00;100008.09;2081406;28;20196;-76
2022/03/02 03:55:14;;;;;;;169.02;74.25;;;;;;;-5.94;100.00;100003.38;2081521;28;20609;-76
2022/03/02 03:56:15;;;;;;;179.35;77.72;;;;;;;-5.93;100.00;100006.78;2089372;28;20277;-76
2022/03/02 03:57:18;;;;;;;174.45;75.53;;;;;;;-5.92;100.00;100009.19;2082017;28;20187;-76
2022/03/02 03:58:20;;;;;;;178.68;76.30;;;;;;;-5.94;100.00;99999.97;2082187;28;20210;-76
2022/03/02 03:59:21;;;;;;;180.23;77.60;;;;;;;-5.94;100.00;100003.38;2082258;28;20195;-76
2022/03/02 04:00:23;;;;;;;177.13;78.70;;;;;;;-5.95;100.00;100009.53;2081617;28;20238;-76
2022/03/02 04:01:24;;;;;;;182.90;74.22;;;;;;;-5.95;100.00;100006.94;2081434;28;20211;-76
2022/03/02 04:02:26;;;;;;;175.23;75.05;;;;;;;-5.95;100.00;100004.34;2082000;28;20202;-75
2022/03/02 04:03:29;;;;;;;176.02;76.40;;;;;;;-5.97;100.00;100006.31;2081989;28;20229;-76
2022/03/02 04:04:30;;;;;;;169.38;75.30;;;;;;;-5.99;100.00;100008.25;2081476;28;20302;-76
2022/03/02 04:05:34;;;;;;;170.40;73.03;;;;;;;-6.00;100.00;100001.41;2081683;28;20198;-76
2022/03/02 04:06:35;;;;;;;168.98;74.32;;;;;;;-6.03;100.00;99993.97;2081701;28;20298;-76
2022/03/02 04:07:38;;;;;;;176.43;75.93;;;;;;;-6.03;100.00;99996.56;2082130;28;20199;-76
2022/03/02 04:08:40;;;;;;;169.25;73.35;;;;;;;-6.03;100.00;100004.34;2081987;28;20196;-76
2022/03/02 04:09:43;;;;;;;187.80;76.95;;;;;;;-6.03;100.00;99997.38;2082058;28;20242;-75
2022/03/02 04:10:47;;;;;;;174.43;72.97;;;;;;;-6.03;100.00;99996.56;2081340;28;20206;-76
2022/03/02 04:11:49;;;;;;;177.13;74.82;;;;;;;-6.04;100.00;99995.75;2073267;28;20235;-76
2022/03/02 04:12:51;;;;;;;166.13;70.93;;;;;;;-6.04;100.00;99998.34;2081407;28;20222;-75
2022/03/02 04:13:53;;;;;;;176.65;73.90;;;;;;;-6.08;100.00;99991.88;2081376;28;20220;-77
2022/03/02 04:14:55;;;;;;;174.10;71.30;;;;;;;-6.09;100.00;99992.03;2081598;28;20628;-76
2022/03/02 04:15:57;;;;;;;171.32;73.53;;;;;;;-6.12;100.00;99997.56;2081703;28;20211;-76
2022/03/02 04:17:00;;;;;;;178.80;73.80;;;;;;;-6.15;100.00;99993.50;2073622;28;20231;-76
2022/03/02 04:18:03;;;;;;;174.15;74.30;;;;;;;-6.16;100.00;99986.69;2074016;28;20316;-76
2022/03/02 04:19:06;;;;;;;170.88;73.18;;;;;;;-6.20;100.00;99987.19;2081570;28;20203;-76
2022/03/02 04:20:11;;;;;;;170.30;74.75;;;;;;;-6.22;100.00;99994.34;2082000;28;20233;-76
2022/03/02 04:21:14;;;;;;;158.85;71.05;;;;;;;-6.26;100.00;99989.44;2080889;28;20227;-76
2022/03/02 04:22:17;;;;;;;187.80;75.35;;;;;;;-6.28;100.00;99988.81;2073906;28;20659;-76
2022/03/02 04:23:19;;;;;;;172.68;75.18;;;;;;;-6.32;100.00;99984.94;2081473;28;20235;-75
2022/03/02 04:24:21;;;;;;;183.35;75.88;;;;;;;-6.35;100.00;99980.03;2081350;28;20661;-76
2022/03/02 04:25:24;;;;;;;170.48;74.05;;;;;;;-6.36;100.00;99986.22;2081315;28;20246;-76
2022/03/02 04:26:28;;;;;;;181.88;73.10;;;;;;;-6.37;100.00;99994.97;2081675;28;20203;-76
2022/03/02 04:27:30;;;;;;;175.75;74.22;;;;;;;-6.40;100.00;99984.13;2081674;28;20242;-76
2022/03/02 04:28:33;;;;;;;159.45;72.35;;;;;;;-6.40;100.00;99992.72;2082112;28;20191;-75
2022/03/02 04:29:36;;;;;;;178.20;75.30;;;;;;;-6.40;100.00;99984.94;2082095;28;20274;-76
2022/03/02 04:30:39;;;;;;;182.20;76.97;;;;;;;-6.40;100.00;99989.31;2081176;28;20219;-76
2022/03/02 04:31:40;;;;;;;169.32;75.40;;;;;;;-6.40;100.00;99990.13;2081322;28;20663;-76
2022/03/02 04:32:43;;;;;;;174.77;75.82;;;;;;;-6.41;100.00;99991.09;2081853;28;20200;-76
2022/03/02 04:33:45;;;;;;;170.85;74.30;;;;;;;-6.40;100.00;99990.13;2081187;28;20317;-76
2022/03/02 04:34:49;;;;;;;179.27;78.15;;;;;;;-6.39;100.00;99989.16;2073324;28;20205;-75
2022/03/02 04:35:50;;;;;;;173.63;73.60;;;;;;;-6.39;100.00;99985.75;2081313;28;20306;-75
2022/03/02 04:36:53;;;;;;;184.48;78.55;;;;;;;-6.39;100.00;99978.78;2081670;28;20231;-75
2022/03/02 04:37:55;;;;;;;167.20;76.07;;;;;;;-6.39;100.00;99983.16;2081992;28;20199;-75
2022/03/02 04:38:57;;;;;;;172.75;78.05;;;;;;;-6.39;100.00;99988.34;2081125;28;20196;-75